Airports United Kingdom Cardiff International Airport

Cardiff International Airport (EGFF / CWL)

Facts about Cardiff International Airport

Name Cardiff International Airport
City Cardiff
Country United Kingdom
ICAO code EGFF
IATA code CWL
Elevation 67.0560 meters (220 feet)

Weather

METAR

Metar data retrieved Friday, 19 July 2024 at 23:55 UTC (23 minutes ago)

EGFF 192320Z AUTO 26005KT 9999 SCT003 BKN015 17/17 Q1012

Live traffic

Navigraph Charts (account required)